createdAt,value
2023-04-20T00:02:15.607Z,102108.13
2023-04-20T00:05:17.391Z,102100.09
2023-04-20T00:08:19.341Z,102098.22
2023-04-20T00:11:21.118Z,102087.50
2023-04-20T00:14:22.660Z,102084.72
2023-04-20T00:17:24.330Z,102088.25
2023-04-20T00:20:25.987Z,102086.47
2023-04-20T00:23:27.578Z,102089.06
2023-04-20T00:26:29.241Z,102091.69
2023-04-20T00:29:30.806Z,102082.84
2023-04-20T00:32:32.514Z,102088.16
2023-04-20T00:35:34.091Z,102081.97
2023-04-20T00:38:35.761Z,102072.25
2023-04-20T00:41:37.639Z,102066.13
2023-04-20T00:44:39.221Z,102050.28
2023-04-20T00:47:40.857Z,102047.69
2023-04-20T00:50:42.494Z,102030.91
2023-04-20T00:53:44.961Z,102022.16
2023-04-20T00:56:46.803Z,102037.19
2023-04-20T00:59:48.537Z,102021.44
2023-04-20T01:02:50.213Z,102022.50
2023-04-20T01:05:51.905Z,102015.50
2023-04-20T01:08:53.622Z,102022.69
2023-04-20T01:11:55.457Z,102017.50
2023-04-20T01:14:57.058Z,102015.88
2023-04-20T01:17:58.668Z,102013.28
2023-04-20T01:21:00.420Z,102003.75
2023-04-20T01:24:02.016Z,102006.56
2023-04-20T01:27:03.680Z,102002.34
2023-04-20T01:30:05.925Z,101995.41
2023-04-20T01:33:07.714Z,101998.22
2023-04-20T01:36:10.030Z,101992.16
2023-04-20T01:39:12.573Z,101995.78
2023-04-20T01:42:14.172Z,101994.97
2023-04-20T01:45:15.786Z,101994.19
2023-04-20T01:48:17.372Z,101983.69
2023-04-20T01:51:18.971Z,101975.81
2023-04-20T01:54:20.546Z,101961.78
2023-04-20T01:57:22.112Z,101953.78
2023-04-20T02:00:23.757Z,101944.84
2023-04-20T02:03:25.628Z,101948.47
2023-04-20T02:06:27.431Z,101960.94
2023-04-20T02:09:29.276Z,101963.81
2023-04-20T02:12:30.958Z,101962.16
2023-04-20T02:15:32.460Z,101970.22
2023-04-20T02:18:34.103Z,101958.06
2023-04-20T02:21:35.882Z,101948.44
2023-04-20T02:24:37.454Z,101937.91
2023-04-20T02:27:39.069Z,101942.25
2023-04-20T02:30:40.807Z,101958.16
2023-04-20T02:33:42.425Z,101957.34
2023-04-20T02:36:44.021Z,101952.94
2023-04-20T02:39:46.109Z,101954.78
2023-04-20T02:42:47.663Z,101960.16
2023-04-20T02:45:49.540Z,101975.28
2023-04-20T02:48:51.131Z,101968.34
2023-04-20T02:51:52.748Z,101960.53
2023-04-20T02:54:54.330Z,101954.38
2023-04-20T02:57:55.903Z,101947.38
2023-04-20T03:01:01.347Z,101950.91
2023-04-20T03:04:03.171Z,101951.88
2023-04-20T03:07:04.980Z,101944.03
2023-04-20T03:10:07.261Z,101959.97
2023-04-20T03:13:09.273Z,101942.41
2023-04-20T03:16:10.949Z,101928.38
2023-04-20T03:19:12.503Z,101920.50
2023-04-20T03:22:14.122Z,101913.41
2023-04-20T03:25:16.313Z,101916.91
2023-04-20T03:28:17.909Z,101922.22
2023-04-20T03:31:19.509Z,101918.75
2023-04-20T03:34:21.867Z,101917.88
2023-04-20T03:37:23.630Z,101930.22
2023-04-20T03:40:25.428Z,101915.22
2023-04-20T03:43:26.976Z,101908.25
2023-04-20T03:46:28.682Z,101910.03
2023-04-20T03:49:30.902Z,101916.19
2023-04-20T03:52:32.524Z,101917.94
2023-04-20T03:55:34.090Z,101917.06
2023-04-20T03:58:35.650Z,101924.94
2023-04-20T04:01:39.228Z,101905.53
2023-04-20T04:04:41.473Z,101922.22
2023-04-20T04:07:43.074Z,101918.69
2023-04-20T04:10:44.615Z,101920.53
2023-04-20T04:13:46.381Z,101917.06
2023-04-20T04:16:47.974Z,101917.16
2023-04-20T04:19:49.599Z,101913.84
2023-04-20T04:22:52.137Z,101914.91
2023-04-20T04:25:54.181Z,101912.44
2023-04-20T04:28:56.158Z,101919.66
2023-04-20T04:31:58.543Z,101911.84
2023-04-20T04:35:01.349Z,101917.25
2023-04-20T04:38:02.924Z,101916.47
2023-04-20T04:41:04.668Z,101921.75
2023-04-20T04:44:06.209Z,101918.31
2023-04-20T04:47:09.558Z,101926.41
2023-04-20T04:50:11.907Z,101923.97
2023-04-20T04:53:13.489Z,101918.91
2023-04-20T04:56:15.081Z,101919.13
2023-04-20T04:59:16.881Z,101921.09
2023-04-20T05:02:18.835Z,101925.66
2023-04-20T05:05:20.452Z,101924.97
2023-04-20T05:08:24.423Z,101924.22
2023-04-20T05:11:25.989Z,101930.41
2023-04-20T05:14:27.565Z,101929.53
2023-04-20T05:17:29.252Z,101935.75
2023-04-20T05:20:30.821Z,101944.56
2023-04-20T05:23:32.436Z,101947.34
2023-04-20T05:26:33.992Z,101938.63
2023-04-20T05:29:35.725Z,101942.72
2023-04-20T05:32:37.296Z,101947.53
2023-04-20T05:35:41.087Z,101947.59
2023-04-20T05:38:42.647Z,101950.44
2023-04-20T05:41:44.880Z,101959.38
2023-04-20T05:44:46.555Z,101954.22
2023-04-20T05:47:58.486Z,101961.38
2023-04-20T05:51:00.652Z,101953.50
2023-04-20T05:54:03.066Z,101953.56
2023-04-20T05:57:05.841Z,101950.94
2023-04-20T06:00:10.273Z,101950.97
2023-04-20T06:03:15.370Z,101953.66
2023-04-20T06:06:17.177Z,101951.06
2023-04-20T06:09:19.265Z,101958.16
2023-04-20T06:12:20.967Z,101955.59
2023-04-20T06:15:22.545Z,101959.19
2023-04-20T06:18:24.135Z,101963.72
2023-04-20T06:21:27.369Z,101958.50
2023-04-20T06:24:28.977Z,101956.78
2023-04-20T06:27:30.494Z,101952.34
2023-04-20T06:30:35.538Z,101953.22
2023-04-20T06:33:37.151Z,101944.44
2023-04-20T06:36:42.544Z,101942.66
2023-04-20T06:39:44.153Z,101940.03
2023-04-20T06:42:45.696Z,101940.97
2023-04-20T06:45:47.256Z,101941.78
2023-04-20T06:48:48.782Z,101936.38
2023-04-20T06:51:50.435Z,101946.94
2023-04-20T06:54:52.241Z,101943.41
2023-04-20T06:57:53.810Z,101936.31
2023-04-20T07:00:55.416Z,101937.13
2023-04-20T07:03:57.147Z,101946.84
2023-04-20T07:06:58.938Z,101945.06
2023-04-20T07:10:00.575Z,101941.47
2023-04-20T07:13:02.121Z,101943.16
2023-04-20T07:16:03.841Z,101941.38
2023-04-20T07:19:05.669Z,101943.00
2023-04-20T07:22:07.510Z,101940.41
2023-04-20T07:25:10.837Z,101947.34
2023-04-20T07:28:12.519Z,101948.13
2023-04-20T07:31:14.058Z,101948.94
2023-04-20T07:34:15.792Z,101942.75
2023-04-20T07:37:17.478Z,101940.97
2023-04-20T07:40:19.091Z,101946.13
2023-04-20T07:43:20.785Z,101946.88
2023-04-20T07:46:23.260Z,101951.19
2023-04-20T07:49:25.913Z,101947.59
2023-04-20T07:52:27.497Z,101952.72
2023-04-20T07:55:29.160Z,101954.44
2023-04-20T07:58:30.757Z,101953.59
2023-04-20T08:01:32.338Z,101951.78
2023-04-20T08:04:34.215Z,101958.78
2023-04-20T08:07:36.195Z,101958.69
2023-04-20T08:10:38.137Z,101952.47
2023-04-20T08:13:41.921Z,101952.31
2023-04-20T08:16:43.500Z,101963.69
2023-04-20T08:19:46.102Z,101958.34
2023-04-20T08:22:49.308Z,101961.84
2023-04-20T08:25:51.047Z,101960.97
2023-04-20T08:28:52.669Z,101968.81
2023-04-20T08:31:54.358Z,101961.78
2023-04-20T08:34:56.291Z,101968.81
2023-04-20T08:37:57.810Z,101978.50
2023-04-20T08:40:59.413Z,101978.53
2023-04-20T08:44:00.998Z,101975.94
2023-04-20T08:47:03.626Z,101975.00
2023-04-20T08:50:06.198Z,101968.81
2023-04-20T08:53:09.651Z,101973.16
2023-04-20T08:56:11.530Z,101970.88
2023-04-20T08:59:14.266Z,101983.16
2023-04-20T09:02:15.971Z,101976.25
2023-04-20T09:05:26.187Z,101976.47
2023-04-20T09:08:41.740Z,101989.69
2023-04-20T09:11:43.333Z,101981.00
2023-04-20T09:14:49.083Z,101972.16
2023-04-20T09:17:50.849Z,101971.25
2023-04-20T09:20:52.482Z,101975.72
2023-04-20T09:24:08.321Z,101981.91
2023-04-20T09:27:17.680Z,101989.84
2023-04-20T09:30:19.384Z,101981.91
2023-04-20T09:33:28.455Z,101981.00
2023-04-20T09:36:46.555Z,102005.66
2023-04-20T09:39:48.740Z,102010.00
2023-04-20T09:42:52.955Z,102006.50
2023-04-20T09:45:56.325Z,102005.63
2023-04-20T09:49:00.489Z,102008.25
2023-04-20T09:52:03.898Z,101998.56
2023-04-20T09:55:09.283Z,101995.84
2023-04-20T09:58:11.109Z,101994.88
2023-04-20T10:01:12.922Z,101993.00
2023-04-20T10:04:15.007Z,101990.25
2023-04-20T10:07:24.088Z,101995.50
2023-04-20T10:10:25.741Z,101995.41
2023-04-20T10:13:33.926Z,101990.13
2023-04-20T10:16:35.575Z,101989.22
2023-04-20T10:19:37.675Z,101977.72
2023-04-20T10:22:39.225Z,101981.19
2023-04-20T10:25:41.272Z,101982.03
2023-04-20T10:28:45.014Z,101976.75
2023-04-20T10:31:46.672Z,101982.75
2023-04-20T10:34:48.200Z,101977.34
2023-04-20T10:37:51.467Z,101983.47
2023-04-20T10:40:53.092Z,101986.88
2023-04-20T10:43:54.723Z,101989.50
2023-04-20T10:46:57.127Z,101992.03
2023-04-20T10:50:15.676Z,101985.75
2023-04-20T10:53:21.737Z,101990.03
2023-04-20T10:56:23.330Z,101985.53
2023-04-20T10:59:25.219Z,101989.88
2023-04-20T11:02:28.233Z,101995.06
2023-04-20T11:05:30.111Z,101991.38
2023-04-20T11:08:39.731Z,101988.53
2023-04-20T11:11:41.312Z,101996.13
2023-04-20T11:15:00.341Z,101987.72
2023-04-20T11:18:09.973Z,101981.22
2023-04-20T11:21:11.857Z,101979.19
2023-04-20T11:24:24.542Z,101972.84
2023-04-20T11:27:26.087Z,101970.97
2023-04-20T11:30:41.720Z,101972.22
2023-04-20T11:33:44.028Z,101956.44
2023-04-20T11:36:46.424Z,101955.44
2023-04-20T11:39:48.011Z,101956.19
2023-04-20T11:42:49.578Z,101964.53
2023-04-20T11:45:51.215Z,101947.34
2023-04-20T11:48:53.019Z,101941.59
2023-04-20T11:51:54.942Z,101942.94
2023-04-20T11:54:56.529Z,101946.28
2023-04-20T11:57:58.044Z,101939.75
2023-04-20T12:01:00.286Z,101945.78
2023-04-20T12:04:02.470Z,101938.75
2023-04-20T12:07:04.310Z,101931.59
2023-04-20T12:10:07.966Z,101929.28
2023-04-20T12:13:09.531Z,101934.84
2023-04-20T12:16:12.571Z,101926.38
2023-04-20T12:19:14.145Z,101927.72
2023-04-20T12:22:15.901Z,101925.53
2023-04-20T12:25:17.455Z,101918.88
2023-04-20T12:28:19.140Z,101925.53
2023-04-20T12:31:21.088Z,101924.47
2023-04-20T12:34:22.678Z,101921.94
2023-04-20T12:37:24.260Z,101931.63
2023-04-20T12:40:25.971Z,101937.03
2023-04-20T12:43:28.784Z,101929.19
2023-04-20T12:46:30.429Z,101942.41
2023-04-20T12:49:33.633Z,101938.47
2023-04-20T12:52:35.462Z,101928.13
2023-04-20T12:55:37.026Z,101930.59
2023-04-20T12:58:38.795Z,101924.53
2023-04-20T13:01:40.477Z,101929.94
2023-04-20T13:04:42.091Z,101940.91
2023-04-20T13:07:43.741Z,101933.38
2023-04-20T13:10:45.886Z,101927.50
2023-04-20T13:13:47.450Z,101916.38
2023-04-20T13:16:49.241Z,101921.81
2023-04-20T13:19:52.000Z,101913.19
2023-04-20T13:22:57.809Z,101902.03
2023-04-20T13:26:01.699Z,101897.72
2023-04-20T13:29:03.580Z,101889.75
2023-04-20T13:32:05.501Z,101892.41
2023-04-20T13:35:07.763Z,101881.91
2023-04-20T13:38:09.312Z,101894.19
2023-04-20T13:41:10.997Z,101889.75
2023-04-20T13:44:16.305Z,101893.97
2023-04-20T13:47:19.598Z,101876.13
2023-04-20T13:50:21.630Z,101877.78
2023-04-20T13:53:23.735Z,101875.19
2023-04-20T13:56:25.486Z,101878.00
2023-04-20T13:59:27.828Z,101879.84
2023-04-20T14:02:30.143Z,101879.19
2023-04-20T14:05:32.062Z,101878.38
2023-04-20T14:08:33.876Z,101883.69
2023-04-20T14:11:35.787Z,101893.47
2023-04-20T14:14:38.106Z,101885.63
2023-04-20T14:17:40.188Z,101882.22
2023-04-20T14:20:42.652Z,101878.66
2023-04-20T14:23:44.891Z,101882.22
2023-04-20T14:26:46.558Z,101893.00
2023-04-20T14:29:48.719Z,101906.47
2023-04-20T14:32:58.991Z,101891.78
2023-04-20T14:36:01.215Z,101891.13
2023-04-20T14:39:03.846Z,101879.84
2023-04-20T14:42:06.735Z,101889.72
2023-04-20T14:45:10.056Z,101889.88
2023-04-20T14:48:13.444Z,101882.94
2023-04-20T14:51:16.663Z,101874.28
2023-04-20T14:54:19.546Z,101881.59
2023-04-20T14:57:21.797Z,101870.25
2023-04-20T15:00:24.929Z,101878.25
2023-04-20T15:03:26.810Z,101872.16
2023-04-20T15:06:28.791Z,101864.28
2023-04-20T15:09:30.651Z,101866.97
2023-04-20T15:12:32.301Z,101871.59
2023-04-20T15:15:46.903Z,101864.69
2023-04-20T15:18:52.028Z,101863.03
2023-04-20T15:21:53.582Z,101852.50
2023-04-20T15:24:55.291Z,101841.00
2023-04-20T15:27:56.890Z,101854.28
2023-04-20T15:30:58.430Z,101846.44
2023-04-20T15:34:00.548Z,101844.69
2023-04-20T15:37:02.115Z,101836.81
2023-04-20T15:40:04.036Z,101833.38
2023-04-20T15:43:06.406Z,101825.34
2023-04-20T15:46:08.038Z,101829.47
2023-04-20T15:49:09.597Z,101824.09
2023-04-20T15:52:11.296Z,101816.06
2023-04-20T15:55:12.917Z,101824.03
2023-04-20T15:58:14.547Z,101817.66
2023-04-20T16:01:17.823Z,101814.00
2023-04-20T16:04:20.018Z,101807.72
2023-04-20T16:07:22.003Z,101805.88
2023-04-20T16:10:23.770Z,101802.25
2023-04-20T16:13:26.289Z,101812.66
2023-04-20T16:16:27.984Z,101808.13
2023-04-20T16:19:31.264Z,101811.47
2023-04-20T16:22:32.812Z,101812.22
2023-04-20T16:25:34.599Z,101813.88
2023-04-20T16:28:36.297Z,101810.69
2023-04-20T16:31:38.033Z,101808.19
2023-04-20T16:34:39.602Z,101806.28
2023-04-20T16:37:41.179Z,101801.84
2023-04-20T16:40:43.528Z,101801.75
2023-04-20T16:43:45.281Z,101797.31
2023-04-20T16:46:52.781Z,101791.13
2023-04-20T16:49:54.376Z,101786.59
2023-04-20T16:52:55.917Z,101778.63
2023-04-20T16:56:00.703Z,101791.09
2023-04-20T16:59:02.635Z,101794.66
2023-04-20T17:02:04.406Z,101793.78
2023-04-20T17:05:07.290Z,101792.00
2023-04-20T17:08:09.214Z,101781.28
2023-04-20T17:11:11.060Z,101786.47
2023-04-20T17:14:12.640Z,101792.56
2023-04-20T17:17:14.281Z,101786.34
2023-04-20T17:20:16.150Z,101768.53
2023-04-20T17:23:18.803Z,101764.09
2023-04-20T17:26:20.822Z,101767.53
2023-04-20T17:29:22.414Z,101768.44
2023-04-20T17:32:24.285Z,101772.84
2023-04-20T17:35:26.317Z,101778.91
2023-04-20T17:38:27.842Z,101775.25
2023-04-20T17:41:29.482Z,101778.69
2023-04-20T17:44:31.292Z,101766.19
2023-04-20T17:47:33.033Z,101773.16
2023-04-20T17:50:34.831Z,101766.91
2023-04-20T17:53:36.397Z,101766.84
2023-04-20T17:56:37.973Z,101770.34
2023-04-20T17:59:41.774Z,101763.25
2023-04-20T18:02:43.492Z,101775.66
2023-04-20T18:05:45.776Z,101777.47
2023-04-20T18:08:47.354Z,101775.53
2023-04-20T18:11:48.946Z,101781.63
2023-04-20T18:14:50.806Z,101780.63
2023-04-20T18:17:52.361Z,101784.13
2023-04-20T18:20:54.071Z,101784.13
2023-04-20T18:23:55.809Z,101778.31
2023-04-20T18:26:57.393Z,101789.81
2023-04-20T18:29:59.898Z,101797.69
2023-04-20T18:33:01.891Z,101806.47
2023-04-20T18:36:03.935Z,101803.72
2023-04-20T18:39:06.282Z,101805.38
2023-04-20T18:42:07.868Z,101789.28
2023-04-20T18:45:09.792Z,101780.28
2023-04-20T18:48:11.726Z,101785.47
2023-04-20T18:51:13.516Z,101789.88
2023-04-20T18:54:15.114Z,101794.16
2023-04-20T18:57:16.720Z,101795.81
2023-04-20T19:00:19.529Z,101797.53
2023-04-20T19:03:21.366Z,101804.50
2023-04-20T19:06:23.505Z,101799.09
2023-04-20T19:09:26.036Z,101802.50
2023-04-20T19:12:28.676Z,101794.50
2023-04-20T19:15:30.727Z,101795.44
2023-04-20T19:18:33.093Z,101786.69
2023-04-20T19:21:34.889Z,101796.63
2023-04-20T19:24:36.638Z,101788.00
2023-04-20T19:27:38.470Z,101786.41
2023-04-20T19:30:40.067Z,101789.28
2023-04-20T19:33:42.060Z,101789.41
2023-04-20T19:36:43.622Z,101791.28
2023-04-20T19:39:45.179Z,101794.81
2023-04-20T19:42:48.584Z,101785.28
2023-04-20T19:45:50.192Z,101787.31
2023-04-20T19:48:51.734Z,101792.84
2023-04-20T19:51:53.291Z,101790.47
2023-04-20T19:54:55.397Z,101788.97
2023-04-20T19:57:57.227Z,101784.78
2023-04-20T20:00:59.895Z,101782.47
2023-04-20T20:04:02.838Z,101788.03
2023-04-20T20:07:05.606Z,101790.91
2023-04-20T20:10:09.319Z,101780.50
2023-04-20T20:13:11.095Z,101782.59
2023-04-20T20:16:12.776Z,101774.88
2023-04-20T20:19:14.326Z,101771.63
2023-04-20T20:22:16.609Z,101777.94
2023-04-20T20:25:19.926Z,101775.50
2023-04-20T20:28:21.529Z,101779.19
2023-04-20T20:31:23.190Z,101776.75
2023-04-20T20:34:24.950Z,101776.03
2023-04-20T20:37:26.591Z,101773.44
2023-04-20T20:40:28.214Z,101776.22
2023-04-20T20:43:31.522Z,101784.31
2023-04-20T20:46:33.241Z,101775.63
2023-04-20T20:49:34.862Z,101772.19
2023-04-20T20:52:36.599Z,101774.72
2023-04-20T20:55:38.409Z,101782.59
2023-04-20T20:58:39.933Z,101774.72
2023-04-20T21:01:41.621Z,101777.47
2023-04-20T21:04:43.197Z,101773.22
2023-04-20T21:07:44.803Z,101780.38
2023-04-20T21:10:46.338Z,101766.31
2023-04-20T21:13:47.947Z,101774.41
2023-04-20T21:16:49.548Z,101770.06
2023-04-20T21:19:51.158Z,101771.75
2023-04-20T21:22:52.849Z,101755.84
2023-04-20T21:25:54.405Z,101770.97
2023-04-20T21:28:55.929Z,101766.59
2023-04-20T21:31:57.929Z,101775.41
2023-04-20T21:34:59.463Z,101767.44
2023-04-20T21:38:01.106Z,101767.59
2023-04-20T21:41:02.781Z,101769.50
2023-04-20T21:44:04.490Z,101771.63
2023-04-20T21:47:06.023Z,101767.59
2023-04-20T21:50:07.810Z,101766.78
2023-04-20T21:53:09.379Z,101765.34
2023-04-20T21:56:11.320Z,101760.22
2023-04-20T21:59:14.311Z,101765.72
2023-04-20T22:02:16.085Z,101764.97
2023-04-20T22:05:17.791Z,101768.72
2023-04-20T22:08:22.321Z,101771.59
2023-04-20T22:11:24.256Z,101770.00
2023-04-20T22:14:25.849Z,101766.63
2023-04-20T22:17:29.797Z,101786.22
2023-04-20T22:20:31.602Z,101783.75
2023-04-20T22:23:33.296Z,101768.84
2023-04-20T22:26:34.986Z,101767.16
2023-04-20T22:29:36.524Z,101771.78
2023-04-20T22:32:38.473Z,101770.16
2023-04-20T22:35:40.151Z,101768.66
2023-04-20T22:38:41.844Z,101758.22
2023-04-20T22:41:43.426Z,101764.50
2023-04-20T22:44:45.684Z,101762.91
2023-04-20T22:47:47.465Z,101761.22
2023-04-20T22:50:49.092Z,101765.75
2023-04-20T22:53:50.670Z,101760.50
2023-04-20T22:56:52.277Z,101759.69
2023-04-20T22:59:53.801Z,101754.53
2023-04-20T23:02:55.474Z,101753.69
2023-04-20T23:05:57.688Z,101752.09
2023-04-20T23:09:00.032Z,101756.66
2023-04-20T23:12:03.650Z,101752.34
2023-04-20T23:15:06.020Z,101755.06
2023-04-20T23:18:07.603Z,101749.94
2023-04-20T23:21:09.305Z,101750.84
2023-04-20T23:24:10.819Z,101756.22
2023-04-20T23:27:12.365Z,101763.38
2023-04-20T23:30:14.082Z,101755.59
2023-04-20T23:33:15.878Z,101744.25
2023-04-20T23:36:17.536Z,101739.03
2023-04-20T23:39:19.421Z,101746.09
2023-04-20T23:42:21.847Z,101742.66
2023-04-20T23:45:23.738Z,101742.75
2023-04-20T23:48:25.397Z,101739.34
2023-04-20T23:51:27.719Z,101733.34
2023-04-20T23:54:30.648Z,101732.50
2023-04-20T23:57:33.445Z,101737.88
